createdAt,value
2023-02-17T00:01:27.786Z,85.18
2023-02-17T00:03:54.506Z,85.29
2023-02-17T00:06:24.220Z,85.25
2023-02-17T00:08:51.177Z,85.22
2023-02-17T00:11:18.327Z,85.74
2023-02-17T00:13:45.364Z,85.79
2023-02-17T00:16:17.742Z,85.85
2023-02-17T00:18:44.866Z,86.18
2023-02-17T00:21:16.566Z,86.50
2023-02-17T00:23:44.226Z,86.33
2023-02-17T00:26:10.911Z,86.37
2023-02-17T00:28:37.713Z,86.46
2023-02-17T00:31:13.913Z,86.67
2023-02-17T00:33:40.904Z,86.85
2023-02-17T00:36:10.527Z,86.62
2023-02-17T00:38:37.042Z,86.79
2023-02-17T00:41:03.789Z,86.80
2023-02-17T00:43:30.456Z,87.03
2023-02-17T00:45:57.136Z,87.24
2023-02-17T00:48:24.330Z,87.14
2023-02-17T00:50:50.930Z,87.00
2023-02-17T00:53:17.569Z,87.40
2023-02-17T00:55:44.222Z,87.17
2023-02-17T00:58:10.742Z,87.58
2023-02-17T01:00:37.332Z,87.67
2023-02-17T01:03:04.108Z,87.33
2023-02-17T01:05:30.745Z,87.68
2023-02-17T01:07:57.314Z,87.80
2023-02-17T01:10:23.844Z,88.16
2023-02-17T01:12:50.451Z,88.81
2023-02-17T01:15:17.014Z,88.99
2023-02-17T01:17:43.609Z,89.32
2023-02-17T01:20:10.543Z,89.51
2023-02-17T01:22:38.734Z,90.34
2023-02-17T01:25:05.570Z,90.15
2023-02-17T01:27:32.580Z,91.19
2023-02-17T01:29:59.513Z,91.61
2023-02-17T01:32:26.054Z,91.68
2023-02-17T01:34:53.261Z,91.84
2023-02-17T01:37:19.903Z,91.78
2023-02-17T01:39:46.635Z,92.25
2023-02-17T01:42:17.165Z,92.76
2023-02-17T01:45:14.713Z,92.81
2023-02-17T01:47:41.376Z,93.09
2023-02-17T01:50:08.796Z,93.32
2023-02-17T01:52:35.542Z,93.55
2023-02-17T01:55:07.026Z,93.69
2023-02-17T01:57:35.390Z,93.53
2023-02-17T02:00:02.731Z,93.57
2023-02-17T02:02:31.101Z,93.45
2023-02-17T02:04:58.776Z,93.54
2023-02-17T02:07:34.440Z,93.43
2023-02-17T02:10:01.066Z,93.38
2023-02-17T02:12:35.820Z,93.52
2023-02-17T02:15:07.060Z,93.51
2023-02-17T02:17:49.822Z,93.47
2023-02-17T02:20:32.366Z,93.49
2023-02-17T02:23:31.949Z,93.42
2023-02-17T02:26:29.662Z,93.60
2023-02-17T02:29:05.078Z,93.23
2023-02-17T02:31:56.031Z,93.12
2023-02-17T02:34:26.101Z,92.97
2023-02-17T02:37:17.889Z,93.04
2023-02-17T02:39:48.061Z,92.98
2023-02-17T02:42:17.621Z,92.87
2023-02-17T02:44:44.177Z,92.42
2023-02-17T02:47:41.395Z,92.06
2023-02-17T02:50:09.368Z,92.11
2023-02-17T02:52:54.901Z,92.04
2023-02-17T02:55:35.250Z,91.86
2023-02-17T02:58:24.689Z,91.52
2023-02-17T03:01:04.607Z,91.42
2023-02-17T03:03:39.651Z,91.77
2023-02-17T03:06:22.979Z,91.53
2023-02-17T03:09:12.238Z,91.56
2023-02-17T03:11:39.740Z,91.34
2023-02-17T03:14:09.880Z,91.46
2023-02-17T03:16:37.769Z,91.53
2023-02-17T03:19:04.895Z,91.63
2023-02-17T03:21:43.496Z,91.45
2023-02-17T03:24:10.284Z,91.13
2023-02-17T03:26:36.840Z,91.29
2023-02-17T03:29:03.517Z,91.21
2023-02-17T03:31:31.016Z,91.33
2023-02-17T03:33:58.259Z,90.88
2023-02-17T03:36:24.774Z,91.13
2023-02-17T03:38:51.443Z,90.88
2023-02-17T03:41:18.101Z,90.66
2023-02-17T03:43:44.591Z,90.58
2023-02-17T03:46:12.652Z,90.90
2023-02-17T03:48:39.684Z,90.77
2023-02-17T03:51:17.837Z,90.89
2023-02-17T03:53:45.404Z,90.93
2023-02-17T03:56:13.071Z,91.10
2023-02-17T03:58:41.980Z,91.56
2023-02-17T04:01:09.991Z,91.73
2023-02-17T04:03:37.508Z,91.75
2023-02-17T04:06:04.964Z,91.43
2023-02-17T04:08:32.536Z,91.99
2023-02-17T04:11:01.110Z,91.58
2023-02-17T04:13:28.321Z,91.75
2023-02-17T04:15:55.426Z,91.84
2023-02-17T04:18:22.675Z,91.77
2023-02-17T04:20:50.331Z,91.89
2023-02-17T04:23:17.680Z,91.96
2023-02-17T04:25:44.622Z,92.19
2023-02-17T04:28:11.882Z,92.28
2023-02-17T04:30:38.552Z,92.40
2023-02-17T04:33:06.204Z,91.88
2023-02-17T04:35:33.229Z,91.91
2023-02-17T04:37:59.957Z,92.04
2023-02-17T04:40:26.496Z,92.15
2023-02-17T04:42:52.971Z,92.05
2023-02-17T04:45:19.870Z,92.39
2023-02-17T04:47:46.410Z,92.06
2023-02-17T04:50:13.374Z,92.26
2023-02-17T04:52:39.953Z,92.02
2023-02-17T04:55:07.417Z,92.23
2023-02-17T04:57:34.214Z,92.41
2023-02-17T05:00:00.870Z,92.17
2023-02-17T05:02:28.407Z,92.65
2023-02-17T05:04:55.015Z,92.43
2023-02-17T05:07:21.688Z,92.66
2023-02-17T05:09:48.459Z,92.53
2023-02-17T05:12:15.023Z,92.67
2023-02-17T05:14:41.627Z,92.51
2023-02-17T05:17:08.169Z,92.46
2023-02-17T05:19:34.703Z,92.47
2023-02-17T05:22:01.378Z,92.54
2023-02-17T05:24:27.853Z,92.46
2023-02-17T05:26:54.337Z,92.42
2023-02-17T05:29:20.944Z,92.37
2023-02-17T05:31:47.647Z,92.53
2023-02-17T05:34:14.335Z,92.68
2023-02-17T05:36:40.887Z,92.35
2023-02-17T05:39:09.075Z,92.57
2023-02-17T05:41:35.585Z,92.68
2023-02-17T05:44:03.109Z,92.81
2023-02-17T05:46:29.714Z,92.85
2023-02-17T05:48:56.436Z,92.86
2023-02-17T05:51:22.903Z,92.83
2023-02-17T05:53:49.445Z,92.87
2023-02-17T05:56:16.005Z,93.13
2023-02-17T05:58:42.520Z,93.14
2023-02-17T06:01:10.176Z,93.04
2023-02-17T06:03:36.744Z,92.76
2023-02-17T06:06:04.280Z,92.53
2023-02-17T06:08:31.093Z,92.49
2023-02-17T06:10:57.577Z,92.58
2023-02-17T06:13:24.333Z,92.26
2023-02-17T06:15:50.970Z,92.37
2023-02-17T06:18:17.583Z,92.27
2023-02-17T06:20:47.170Z,92.14
2023-02-17T06:23:13.695Z,92.16
2023-02-17T06:25:40.252Z,91.97
2023-02-17T06:28:07.010Z,92.29
2023-02-17T06:30:33.577Z,92.09
2023-02-17T06:33:00.500Z,92.27
2023-02-17T06:35:27.160Z,92.16
2023-02-17T06:37:53.800Z,92.13
2023-02-17T06:40:20.498Z,92.09
2023-02-17T06:42:47.065Z,92.34
2023-02-17T06:45:13.836Z,92.15
2023-02-17T06:47:40.369Z,91.90
2023-02-17T06:50:07.788Z,92.28
2023-02-17T06:52:35.410Z,92.29
2023-02-17T06:55:01.907Z,92.53
2023-02-17T06:57:28.481Z,92.59
2023-02-17T06:59:56.623Z,92.67
2023-02-17T07:02:24.125Z,93.09
2023-02-17T07:04:50.978Z,92.81
2023-02-17T07:07:17.611Z,92.54
2023-02-17T07:09:44.117Z,92.65
2023-02-17T07:12:10.657Z,92.42
2023-02-17T07:14:38.325Z,92.52
2023-02-17T07:17:05.068Z,92.52
2023-02-17T07:19:31.532Z,92.30
2023-02-17T07:21:58.225Z,92.07
2023-02-17T07:24:24.881Z,92.29
2023-02-17T07:26:53.862Z,91.71
2023-02-17T07:29:20.451Z,91.66
2023-02-17T07:31:47.177Z,91.34
2023-02-17T07:34:13.830Z,91.58
2023-02-17T07:36:40.364Z,91.67
2023-02-17T07:39:08.164Z,91.32
2023-02-17T07:41:34.947Z,91.35
2023-02-17T07:44:01.504Z,91.38
2023-02-17T07:46:28.087Z,91.13
2023-02-17T07:48:56.862Z,91.15
2023-02-17T07:51:24.380Z,91.05
2023-02-17T07:53:51.783Z,90.97
2023-02-17T07:56:21.557Z,91.13
2023-02-17T07:58:48.636Z,90.85
2023-02-17T08:01:20.332Z,90.56
2023-02-17T08:03:47.956Z,90.47
2023-02-17T08:06:17.443Z,90.75
2023-02-17T08:09:02.556Z,90.29
2023-02-17T08:11:49.807Z,90.12
2023-02-17T08:14:16.759Z,89.81
2023-02-17T08:16:43.537Z,89.60
2023-02-17T08:19:10.035Z,89.43
2023-02-17T08:21:36.603Z,89.39
2023-02-17T08:24:03.422Z,89.11
2023-02-17T08:26:29.977Z,88.95
2023-02-17T08:28:56.840Z,88.72
2023-02-17T08:31:25.294Z,88.76
2023-02-17T08:33:52.424Z,88.24
2023-02-17T08:36:22.231Z,88.20
2023-02-17T08:38:51.712Z,87.72
2023-02-17T08:41:22.345Z,87.80
2023-02-17T08:43:50.597Z,87.67
2023-02-17T08:46:18.155Z,87.34
2023-02-17T08:48:44.866Z,87.17
2023-02-17T08:51:23.991Z,86.58
2023-02-17T08:53:51.757Z,86.33
2023-02-17T08:56:18.459Z,86.04
2023-02-17T08:58:45.005Z,85.81
2023-02-17T09:01:12.291Z,85.80
2023-02-17T09:03:39.980Z,85.43
2023-02-17T09:06:07.974Z,84.90
2023-02-17T09:08:35.031Z,84.67
2023-02-17T09:11:01.589Z,84.65
2023-02-17T09:13:28.225Z,84.26
2023-02-17T09:15:54.812Z,84.09
2023-02-17T09:18:22.575Z,84.04
2023-02-17T09:20:49.672Z,83.86
2023-02-17T09:23:16.480Z,83.88
2023-02-17T09:25:43.196Z,83.59
2023-02-17T09:28:09.854Z,83.37
2023-02-17T09:30:36.893Z,83.27
2023-02-17T09:33:05.395Z,83.17
2023-02-17T09:35:33.249Z,82.92
2023-02-17T09:38:00.359Z,82.39
2023-02-17T09:40:50.196Z,82.25
2023-02-17T09:43:25.436Z,81.99
2023-02-17T09:45:59.800Z,81.72
2023-02-17T09:48:30.487Z,81.75
2023-02-17T09:51:10.964Z,81.43
2023-02-17T09:54:01.781Z,81.78
2023-02-17T09:56:38.949Z,81.27
2023-02-17T09:59:37.052Z,81.06
2023-02-17T10:02:08.005Z,80.76
2023-02-17T10:04:39.501Z,80.63
2023-02-17T10:07:12.596Z,80.52
2023-02-17T10:09:56.132Z,80.34
2023-02-17T10:12:26.370Z,79.71
2023-02-17T10:14:54.278Z,79.35
2023-02-17T10:17:35.063Z,79.04
2023-02-17T10:20:07.723Z,78.85
2023-02-17T10:22:34.986Z,79.09
2023-02-17T10:25:02.387Z,79.19
2023-02-17T10:27:43.638Z,79.39
2023-02-17T10:30:48.100Z,79.20
2023-02-17T10:33:22.167Z,79.08
2023-02-17T10:35:51.723Z,79.07
2023-02-17T10:38:27.245Z,78.97
2023-02-17T10:40:55.558Z,78.85
2023-02-17T10:43:29.382Z,78.73
2023-02-17T10:45:56.424Z,79.08
2023-02-17T10:48:50.613Z,78.94
2023-02-17T10:51:23.080Z,78.45
2023-02-17T10:53:55.489Z,78.45
2023-02-17T10:56:26.664Z,77.99
2023-02-17T10:59:07.481Z,78.14
2023-02-17T11:01:34.672Z,77.75
2023-02-17T11:04:03.299Z,77.78
2023-02-17T11:06:31.596Z,78.08
2023-02-17T11:09:04.990Z,77.60
2023-02-17T11:11:34.881Z,77.54
2023-02-17T11:14:07.131Z,77.31
2023-02-17T11:16:46.005Z,77.55
2023-02-17T11:19:24.993Z,77.91
2023-02-17T11:21:57.086Z,77.72
2023-02-17T11:24:23.700Z,77.34
2023-02-17T11:27:05.742Z,77.50
2023-02-17T11:29:34.064Z,76.81
2023-02-17T11:32:10.539Z,76.83
2023-02-17T11:34:39.849Z,76.71
2023-02-17T11:37:09.294Z,76.58
2023-02-17T11:39:44.663Z,76.51
2023-02-17T11:42:17.670Z,76.64
2023-02-17T11:44:44.416Z,76.32
2023-02-17T11:47:27.189Z,76.45
2023-02-17T11:50:02.044Z,76.55
2023-02-17T11:52:47.844Z,76.24
2023-02-17T11:55:27.217Z,76.21
2023-02-17T11:58:05.089Z,75.75
2023-02-17T12:00:46.399Z,75.69
2023-02-17T12:03:39.527Z,75.34
2023-02-17T12:06:33.216Z,74.64
2023-02-17T12:09:19.526Z,74.37
2023-02-17T12:12:14.688Z,73.99
2023-02-17T12:14:44.059Z,73.42
2023-02-17T12:17:10.450Z,73.03
2023-02-17T12:19:56.133Z,73.44
2023-02-17T12:22:25.362Z,72.71
2023-02-17T12:25:10.316Z,72.06
2023-02-17T12:28:01.250Z,72.49
2023-02-17T12:31:11.402Z,72.14
2023-02-17T12:33:58.547Z,71.92
2023-02-17T12:36:30.902Z,71.83
2023-02-17T12:39:00.782Z,71.83
2023-02-17T12:41:35.282Z,71.33
2023-02-17T12:44:14.355Z,71.17
2023-02-17T12:46:46.162Z,70.91
2023-02-17T12:49:25.625Z,70.60
2023-02-17T12:51:55.797Z,69.41
2023-02-17T12:54:38.638Z,69.23
2023-02-17T12:57:15.738Z,68.65
2023-02-17T12:59:47.914Z,68.48
2023-02-17T13:02:17.985Z,68.69
2023-02-17T13:04:47.367Z,68.16
2023-02-17T13:07:27.151Z,67.25
2023-02-17T13:09:55.876Z,67.20
2023-02-17T13:12:22.232Z,67.68
2023-02-17T13:14:57.186Z,67.48
2023-02-17T13:17:24.944Z,67.52
2023-02-17T13:20:06.329Z,67.57
2023-02-17T13:22:32.872Z,67.38
2023-02-17T13:24:59.543Z,67.69
2023-02-17T13:27:29.037Z,67.46
2023-02-17T13:30:18.291Z,67.43
2023-02-17T13:32:45.116Z,67.63
2023-02-17T13:35:14.569Z,67.91
2023-02-17T13:37:43.656Z,68.05
2023-02-17T13:40:16.236Z,68.08
2023-02-17T13:42:45.458Z,68.35
2023-02-17T13:45:24.312Z,68.69
2023-02-17T13:47:52.201Z,68.71
2023-02-17T13:50:46.767Z,69.09
2023-02-17T13:53:21.476Z,69.52
2023-02-17T13:55:48.254Z,69.77
2023-02-17T13:58:14.808Z,70.30
2023-02-17T14:00:44.272Z,70.02
2023-02-17T14:03:24.605Z,70.07
2023-02-17T14:05:53.783Z,70.66
2023-02-17T14:08:36.691Z,70.45
2023-02-17T14:11:08.867Z,70.96
2023-02-17T14:13:37.259Z,71.06
2023-02-17T14:16:06.856Z,71.30
2023-02-17T14:18:39.087Z,71.58
2023-02-17T14:21:11.383Z,71.54
2023-02-17T14:23:47.075Z,71.62
2023-02-17T14:26:29.318Z,71.91
2023-02-17T14:28:57.887Z,71.51
2023-02-17T14:31:24.928Z,71.83
2023-02-17T14:33:54.595Z,73.12
2023-02-17T14:36:29.896Z,73.81
2023-02-17T14:38:58.741Z,74.18
2023-02-17T14:41:25.838Z,74.57
2023-02-17T14:43:52.365Z,75.09
2023-02-17T14:46:19.934Z,75.35
2023-02-17T14:48:50.489Z,75.22
2023-02-17T14:51:20.302Z,75.24
2023-02-17T14:53:47.367Z,75.59
2023-02-17T14:56:25.547Z,75.77
2023-02-17T14:58:55.603Z,75.92
2023-02-17T15:01:24.108Z,76.42
2023-02-17T15:03:51.075Z,77.00
2023-02-17T15:06:33.031Z,77.15
2023-02-17T15:09:00.942Z,77.52
2023-02-17T15:11:34.505Z,78.02
2023-02-17T15:14:02.999Z,78.31
2023-02-17T15:16:30.151Z,78.72
2023-02-17T15:18:58.362Z,78.98
2023-02-17T15:21:33.473Z,79.06
2023-02-17T15:24:01.219Z,79.63
2023-02-17T15:26:30.479Z,79.92
2023-02-17T15:28:57.779Z,80.26
2023-02-17T15:31:25.635Z,80.42
2023-02-17T15:33:57.538Z,81.27
2023-02-17T15:36:24.880Z,81.64
2023-02-17T15:38:51.533Z,82.16
2023-02-17T15:41:21.534Z,82.52
2023-02-17T15:43:48.810Z,83.23
2023-02-17T15:46:17.847Z,84.24
2023-02-17T15:48:48.854Z,84.90
2023-02-17T15:51:20.855Z,85.74
2023-02-17T15:53:47.748Z,86.01
2023-02-17T15:56:24.308Z,85.92
2023-02-17T15:58:51.367Z,86.41
2023-02-17T16:01:29.846Z,86.23
2023-02-17T16:03:57.446Z,86.35
2023-02-17T16:06:28.556Z,86.21
2023-02-17T16:08:55.942Z,86.07
2023-02-17T16:11:23.323Z,85.99
2023-02-17T16:13:50.216Z,85.77
2023-02-17T16:16:26.109Z,85.66
2023-02-17T16:18:52.669Z,85.39
2023-02-17T16:21:19.250Z,85.11
2023-02-17T16:23:48.106Z,84.53
2023-02-17T16:26:18.068Z,84.58
2023-02-17T16:28:45.741Z,84.09
2023-02-17T16:31:12.476Z,83.71
2023-02-17T16:33:39.217Z,83.48
2023-02-17T16:36:18.254Z,83.34
2023-02-17T16:38:45.396Z,83.21
2023-02-17T16:41:17.442Z,82.97
2023-02-17T16:43:45.802Z,83.10
2023-02-17T16:46:30.865Z,83.06
2023-02-17T16:48:58.670Z,83.52
2023-02-17T16:51:25.344Z,83.78
2023-02-17T16:53:52.180Z,83.80
2023-02-17T16:56:21.954Z,83.84
2023-02-17T16:58:48.593Z,83.29
2023-02-17T17:01:15.184Z,82.63
2023-02-17T17:03:42.615Z,82.12
2023-02-17T17:06:19.624Z,81.62
2023-02-17T17:08:46.744Z,81.15
2023-02-17T17:11:16.042Z,81.00
2023-02-17T17:13:43.969Z,80.94
2023-02-17T17:16:21.709Z,81.34
2023-02-17T17:18:48.398Z,80.90
2023-02-17T17:21:16.695Z,80.99
2023-02-17T17:23:43.280Z,80.74
2023-02-17T17:26:19.639Z,80.65
2023-02-17T17:28:49.063Z,80.51
2023-02-17T17:31:16.325Z,80.54
2023-02-17T17:33:43.134Z,80.61
2023-02-17T17:36:18.983Z,80.76
2023-02-17T17:38:45.730Z,80.19
2023-02-17T17:41:13.413Z,80.29
2023-02-17T17:43:40.586Z,80.12
2023-02-17T17:46:16.313Z,79.96
2023-02-17T17:48:43.252Z,80.10
2023-02-17T17:51:12.210Z,79.73
2023-02-17T17:53:38.810Z,79.59
2023-02-17T17:56:06.033Z,79.39
2023-02-17T17:58:34.618Z,79.23
2023-02-17T18:01:01.629Z,79.25
2023-02-17T18:03:28.271Z,79.66
2023-02-17T18:05:54.855Z,80.24
2023-02-17T18:08:21.511Z,80.17
2023-02-17T18:10:48.037Z,80.27
2023-02-17T18:13:16.487Z,80.28
2023-02-17T18:15:43.743Z,80.50
2023-02-17T18:18:12.214Z,80.61
2023-02-17T18:20:38.843Z,80.86
2023-02-17T18:23:05.504Z,80.51
2023-02-17T18:25:32.308Z,80.37
2023-02-17T18:27:59.207Z,80.45
2023-02-17T18:30:27.319Z,80.48
2023-02-17T18:32:54.806Z,79.91
2023-02-17T18:35:21.626Z,79.85
2023-02-17T18:37:48.437Z,79.66
2023-02-17T18:40:17.497Z,81.06
2023-02-17T18:42:45.665Z,85.30
2023-02-17T18:45:13.406Z,84.55
2023-02-17T18:47:40.100Z,84.79
2023-02-17T18:50:07.952Z,84.88
2023-02-17T18:52:34.487Z,84.97
2023-02-17T18:55:01.071Z,84.88
2023-02-17T18:57:27.752Z,84.88
2023-02-17T18:59:54.348Z,83.98
2023-02-17T19:02:22.076Z,83.34
2023-02-17T19:04:48.725Z,83.68
2023-02-17T19:07:15.460Z,83.27
2023-02-17T19:09:44.893Z,82.00
2023-02-17T19:12:13.772Z,81.79
2023-02-17T19:14:41.210Z,81.80
2023-02-17T19:17:09.102Z,81.34
2023-02-17T19:19:37.165Z,81.25
2023-02-17T19:22:08.166Z,80.84
2023-02-17T19:24:38.921Z,80.55
2023-02-17T19:27:06.400Z,80.23
2023-02-17T19:29:33.449Z,79.78
2023-02-17T19:32:01.322Z,79.73
2023-02-17T19:34:29.084Z,79.28
2023-02-17T19:36:55.939Z,79.15
2023-02-17T19:39:22.567Z,78.94
2023-02-17T19:41:49.235Z,78.60
2023-02-17T19:44:15.795Z,78.51
2023-02-17T19:46:42.383Z,77.95
2023-02-17T19:49:08.969Z,76.56
2023-02-17T19:51:35.451Z,75.21
2023-02-17T19:54:02.051Z,72.76
2023-02-17T19:56:31.204Z,72.28
2023-02-17T19:58:58.227Z,71.60
2023-02-17T20:01:30.898Z,70.61
2023-02-17T20:03:58.723Z,70.46
2023-02-17T20:06:30.845Z,69.81
2023-02-17T20:09:00.264Z,69.24
2023-02-17T20:11:29.119Z,67.77
2023-02-17T20:13:57.314Z,67.24
2023-02-17T20:16:23.978Z,66.34
2023-02-17T20:18:50.785Z,66.42
2023-02-17T20:21:23.242Z,64.84
2023-02-17T20:23:50.123Z,62.76
2023-02-17T20:26:21.836Z,62.42
2023-02-17T20:28:48.748Z,61.96
2023-02-17T20:31:15.547Z,62.64
2023-02-17T20:33:42.204Z,62.64
2023-02-17T20:36:09.857Z,62.87
2023-02-17T20:38:37.630Z,63.27
2023-02-17T20:41:05.285Z,63.70
2023-02-17T20:43:31.898Z,63.68
2023-02-17T20:45:58.601Z,63.84
2023-02-17T20:48:27.671Z,64.51
2023-02-17T20:50:58.805Z,64.76
2023-02-17T20:53:26.125Z,64.87
2023-02-17T20:55:53.115Z,64.84
2023-02-17T20:58:20.085Z,64.43
2023-02-17T21:00:47.377Z,63.62
2023-02-17T21:03:14.232Z,63.51
2023-02-17T21:05:41.477Z,62.88
2023-02-17T21:08:08.065Z,63.11
2023-02-17T21:10:34.646Z,62.90
2023-02-17T21:13:01.716Z,62.21
2023-02-17T21:15:28.281Z,62.23
2023-02-17T21:17:54.836Z,62.14
2023-02-17T21:20:22.207Z,62.77
2023-02-17T21:22:49.659Z,62.58
2023-02-17T21:25:16.428Z,63.01
2023-02-17T21:27:42.941Z,63.31
2023-02-17T21:30:10.817Z,63.46
2023-02-17T21:32:37.889Z,64.14
2023-02-17T21:35:04.541Z,64.10
2023-02-17T21:37:31.420Z,64.51
2023-02-17T21:39:58.021Z,64.55
2023-02-17T21:42:53.928Z,64.53
2023-02-17T21:45:20.575Z,64.72
2023-02-17T21:47:47.297Z,64.71
2023-02-17T21:50:13.865Z,64.54
2023-02-17T21:52:40.522Z,64.84
2023-02-17T21:55:07.230Z,64.76
2023-02-17T21:57:33.784Z,64.49
2023-02-17T22:00:00.396Z,64.12
2023-02-17T22:02:26.947Z,64.30
2023-02-17T22:04:56.894Z,64.03
2023-02-17T22:07:23.501Z,64.02
2023-02-17T22:09:50.075Z,63.90
2023-02-17T22:12:16.722Z,63.94
2023-02-17T22:14:43.356Z,63.56
2023-02-17T22:17:10.018Z,63.69
2023-02-17T22:19:36.700Z,63.71
2023-02-17T22:22:03.862Z,63.22
2023-02-17T22:24:30.797Z,63.66
2023-02-17T22:26:57.419Z,63.88
2023-02-17T22:29:23.972Z,63.04
2023-02-17T22:31:53.604Z,63.03
2023-02-17T22:34:20.152Z,62.88
2023-02-17T22:36:46.635Z,62.57
2023-02-17T22:39:13.325Z,62.54
2023-02-17T22:41:40.824Z,62.46
2023-02-17T22:44:07.749Z,62.26
2023-02-17T22:46:34.722Z,62.40
2023-02-17T22:49:01.741Z,61.79
2023-02-17T22:51:36.073Z,61.71
2023-02-17T22:54:03.332Z,61.60
2023-02-17T22:56:30.391Z,61.34
2023-02-17T22:59:00.757Z,61.69
2023-02-17T23:01:29.036Z,61.56
2023-02-17T23:03:55.560Z,61.88
2023-02-17T23:06:25.002Z,61.96
2023-02-17T23:08:52.929Z,62.32
2023-02-17T23:11:42.854Z,62.61
2023-02-17T23:14:10.233Z,62.48
2023-02-17T23:16:37.725Z,62.49
2023-02-17T23:19:09.348Z,62.67
2023-02-17T23:21:36.373Z,62.80
2023-02-17T23:24:03.124Z,62.88
2023-02-17T23:26:29.703Z,62.58
2023-02-17T23:28:56.268Z,62.74
2023-02-17T23:31:22.995Z,62.78
2023-02-17T23:33:49.619Z,62.68
2023-02-17T23:36:16.225Z,62.95
2023-02-17T23:38:42.788Z,62.80
2023-02-17T23:41:10.587Z,62.94
2023-02-17T23:43:37.107Z,62.85
2023-02-17T23:46:03.736Z,63.36
2023-02-17T23:48:30.378Z,63.33
2023-02-17T23:50:58.151Z,63.53
2023-02-17T23:53:24.984Z,63.39
2023-02-17T23:56:01.677Z,63.47
2023-02-17T23:58:28.262Z,63.38
